Rockland, Delaware
Current Conditions -  °F | °C
As of 5:51 AM on Saturday 20 Dec 2014 (Local Time) from KILG Reporting Station
Overcast Overcast  
Wind Chill: 29°   Ceiling: 3400
Heat Index: 33°   Visibility: 10mi
Dew Point: 24°   Wind: 5mph
Humidity: 70%   Direction: 360°N
Pressure: 30.25"   Gusts: NA
Location:  39.8°N, 75.57°W
Report Text: KILG 201051Z 36004KT 10SM OVC034 01/M04 A3025 RMK AO2 SLP245 T00061044
Loading
Personal Weather Stations






























Interactive Weather Map New forecast layout! Learn more

10-Day Weather Forecast

Advertisements
Track Severe Weather on mobile